ELR weather

Public forecast

Using degrees Celsius for public forecast. Weather courtesy of forecast.io.

Current aviation weather report (METAR) for El Libertador Airbase

Report is more than 6 hours old.

Retrieved 2012/02/04 16:00 UTC (9 years ago):

SVBL 041600Z 09010KT 9999 BKN050 XX/XX Q1013

Closest aviation forecast (TAF) to El Libertador Airbase

Forecast is more than 12 hours old.

Closest forecast is Arturo Michelena International Airport, 22.0 nm (40.8 km) W. Retrieved 2020/07/29 12:12 UTC (14 days ago):

TAF TAF SVVA 291050Z 2912/3012 11004KT 9999 SCT016 SCT070 TX33/2916Z TN22/3010Z BECMG 2916/2920 09005KT 9000 TSDZ FEW013CB BKN016 TEMPO 2922/3004 14002KT 9999 BKN013